Scranton/Wilkes-Barre, Pennsylvania
Current Conditions -  °F | °C
As of 2:54 PM on Thursday 29 Jan 2015 (Local Time) from KAVP Reporting Station
Overcast Overcast  
Wind Chill: 28°   Ceiling: 8000
Heat Index: 28°   Visibility: 10mi
Dew Point:   Wind: 0mph
Humidity: 45%   Direction: NA
Pressure: 30.02"   Gusts: NA
Location:  41.33°N, 75.73°W
Report Text: KAVP 291954Z 00000KT 10SM BKN080 OVC100 M02/M13 A3002 RMK AO2 SLP178 T10221128
Loading
Personal Weather Stations






























Interactive Weather Map New forecast layout! Learn more

10-Day Weather Forecast

Advertisements
Track Severe Weather on mobile